sensor_id;sensor_type;location;lat;lon;timestamp;pressure;altitude;pressure_sealevel;temperature;humidity
24858;BME280;12935;50.782;6.074;2023-04-20T00:00:35;99913.66;;;7.18;60.50
24858;BME280;12935;50.782;6.074;2023-04-20T00:03:01;99902.00;;;7.40;60.85
24858;BME280;12935;50.782;6.074;2023-04-20T00:05:27;99898.03;;;7.34;61.54
24858;BME280;12935;50.782;6.074;2023-04-20T00:07:54;99909.22;;;7.10;63.66
24858;BME280;12935;50.782;6.074;2023-04-20T00:10:19;99907.72;;;7.12;63.71
24858;BME280;12935;50.782;6.074;2023-04-20T00:12:44;99891.31;;;6.86;64.61
24858;BME280;12935;50.782;6.074;2023-04-20T00:15:10;99887.03;;;6.85;63.53
24858;BME280;12935;50.782;6.074;2023-04-20T00:17:36;99893.66;;;7.07;62.63
24858;BME280;12935;50.782;6.074;2023-04-20T00:20:03;99882.97;;;7.17;61.75
24858;BME280;12935;50.782;6.074;2023-04-20T00:22:29;99879.84;;;7.15;63.27
24858;BME280;12935;50.782;6.074;2023-04-20T00:24:54;99886.50;;;6.98;64.15
24858;BME280;12935;50.782;6.074;2023-04-20T00:27:20;99878.38;;;6.98;63.95
24858;BME280;12935;50.782;6.074;2023-04-20T00:29:45;99874.13;;;7.20;63.11
24858;BME280;12935;50.782;6.074;2023-04-20T00:32:10;99868.84;;;7.08;65.19
24858;BME280;12935;50.782;6.074;2023-04-20T00:34:36;99865.97;;;7.20;64.95
24858;BME280;12935;50.782;6.074;2023-04-20T00:37:01;99869.44;;;6.98;65.73
24858;BME280;12935;50.782;6.074;2023-04-20T00:39:26;99851.44;;;7.13;64.99
24858;BME280;12935;50.782;6.074;2023-04-20T00:41:52;99857.03;;;7.20;65.36
24858;BME280;12935;50.782;6.074;2023-04-20T00:44:17;99851.28;;;7.25;65.83
24858;BME280;12935;50.782;6.074;2023-04-20T00:46:42;99857.50;;;7.02;67.00
24858;BME280;12935;50.782;6.074;2023-04-20T00:49:08;99855.06;;;6.97;67.07
24858;BME280;12935;50.782;6.074;2023-04-20T00:51:33;99847.84;;;7.05;66.01
24858;BME280;12935;50.782;6.074;2023-04-20T00:54:00;99853.53;;;7.19;64.57
24858;BME280;12935;50.782;6.074;2023-04-20T00:56:25;99843.72;;;7.15;64.41
24858;BME280;12935;50.782;6.074;2023-04-20T00:58:51;99841.13;;;6.99;64.80
24858;BME280;12935;50.782;6.074;2023-04-20T01:01:16;99846.66;;;6.64;68.33
24858;BME280;12935;50.782;6.074;2023-04-20T01:03:43;99827.91;;;6.55;67.59
24858;BME280;12935;50.782;6.074;2023-04-20T01:06:09;99843.75;;;6.73;67.94
24858;BME280;12935;50.782;6.074;2023-04-20T01:08:35;99824.84;;;6.80;68.77
24858;BME280;12935;50.782;6.074;2023-04-20T01:11:00;99834.28;;;6.86;68.24
24858;BME280;12935;50.782;6.074;2023-04-20T01:13:26;99819.72;;;6.75;68.46
24858;BME280;12935;50.782;6.074;2023-04-20T01:15:51;99813.19;;;6.79;67.05
24858;BME280;12935;50.782;6.074;2023-04-20T01:18:16;99816.66;;;6.76;66.04
24858;BME280;12935;50.782;6.074;2023-04-20T01:20:44;99815.81;;;6.72;65.63
24858;BME280;12935;50.782;6.074;2023-04-20T01:23:11;99818.38;;;6.65;66.93
24858;BME280;12935;50.782;6.074;2023-04-20T01:25:36;99813.75;;;6.46;68.27
24858;BME280;12935;50.782;6.074;2023-04-20T01:28:01;99800.69;;;6.32;66.83
24858;BME280;12935;50.782;6.074;2023-04-20T01:30:28;99808.09;;;6.36;66.74
24858;BME280;12935;50.782;6.074;2023-04-20T01:32:54;99798.63;;;6.45;66.78
24858;BME280;12935;50.782;6.074;2023-04-20T01:35:19;99788.94;;;6.48;67.57
24858;BME280;12935;50.782;6.074;2023-04-20T01:37:44;99783.66;;;6.55;67.99
24858;BME280;12935;50.782;6.074;2023-04-20T01:40:11;99791.53;;;6.41;67.22
24858;BME280;12935;50.782;6.074;2023-04-20T01:42:37;99787.06;;;6.29;66.90
24858;BME280;12935;50.782;6.074;2023-04-20T01:45:05;99781.97;;;6.08;67.45
24858;BME280;12935;50.782;6.074;2023-04-20T01:47:33;99779.63;;;6.07;68.59
24858;BME280;12935;50.782;6.074;2023-04-20T01:49:58;99776.69;;;5.96;68.64
24858;BME280;12935;50.782;6.074;2023-04-20T01:52:24;99772.09;;;6.00;68.52
24858;BME280;12935;50.782;6.074;2023-04-20T01:54:49;99774.91;;;6.04;69.12
24858;BME280;12935;50.782;6.074;2023-04-20T01:57:14;99780.97;;;5.97;69.87
24858;BME280;12935;50.782;6.074;2023-04-20T01:59:40;99770.63;;;5.87;71.00
24858;BME280;12935;50.782;6.074;2023-04-20T02:02:05;99772.69;;;5.90;71.70
24858;BME280;12935;50.782;6.074;2023-04-20T02:04:30;99772.00;;;5.77;71.49
24858;BME280;12935;50.782;6.074;2023-04-20T02:06:56;99763.28;;;5.87;70.75
24858;BME280;12935;50.782;6.074;2023-04-20T02:09:21;99765.91;;;5.84;71.75
24858;BME280;12935;50.782;6.074;2023-04-20T02:11:46;99765.69;;;5.73;71.90
24858;BME280;12935;50.782;6.074;2023-04-20T02:14:12;99767.72;;;5.76;72.43
24858;BME280;12935;50.782;6.074;2023-04-20T02:16:37;99763.88;;;5.77;71.48
24858;BME280;12935;50.782;6.074;2023-04-20T02:19:02;99765.09;;;5.80;71.20
24858;BME280;12935;50.782;6.074;2023-04-20T02:21:28;99759.34;;;5.85;70.65
24858;BME280;12935;50.782;6.074;2023-04-20T02:23:53;99760.59;;;5.87;69.78
24858;BME280;12935;50.782;6.074;2023-04-20T02:26:18;99749.94;;;5.94;69.61
24858;BME280;12935;50.782;6.074;2023-04-20T02:28:44;99757.88;;;5.87;69.17
24858;BME280;12935;50.782;6.074;2023-04-20T02:31:09;99755.03;;;5.99;68.51
24858;BME280;12935;50.782;6.074;2023-04-20T02:33:35;99748.44;;;5.97;68.02
24858;BME280;12935;50.782;6.074;2023-04-20T02:36:00;99739.34;;;6.09;67.44
24858;BME280;12935;50.782;6.074;2023-04-20T02:38:25;99741.13;;;6.01;67.70
24858;BME280;12935;50.782;6.074;2023-04-20T02:40:51;99744.16;;;5.96;68.33
24858;BME280;12935;50.782;6.074;2023-04-20T02:43:16;99740.13;;;5.90;68.37
24858;BME280;12935;50.782;6.074;2023-04-20T02:45:41;99742.56;;;5.95;67.85
24858;BME280;12935;50.782;6.074;2023-04-20T02:48:07;99728.50;;;5.89;67.55
24858;BME280;12935;50.782;6.074;2023-04-20T02:50:32;99726.75;;;5.97;66.80
24858;BME280;12935;50.782;6.074;2023-04-20T02:52:57;99708.59;;;6.01;66.19
24858;BME280;12935;50.782;6.074;2023-04-20T02:55:22;99705.06;;;6.20;66.12
24858;BME280;12935;50.782;6.074;2023-04-20T02:57:48;99693.78;;;6.18;66.59
24858;BME280;12935;50.782;6.074;2023-04-20T03:00:13;99702.09;;;6.06;67.23
24858;BME280;12935;50.782;6.074;2023-04-20T03:02:39;99699.53;;;5.93;67.71
24858;BME280;12935;50.782;6.074;2023-04-20T03:05:05;99689.25;;;6.03;67.86
24858;BME280;12935;50.782;6.074;2023-04-20T03:07:30;99680.91;;;5.92;68.23
24858;BME280;12935;50.782;6.074;2023-04-20T03:09:55;99678.38;;;5.83;68.71
24858;BME280;12935;50.782;6.074;2023-04-20T03:12:21;99675.72;;;5.87;67.65
24858;BME280;12935;50.782;6.074;2023-04-20T03:14:46;99668.75;;;5.86;66.93
24858;BME280;12935;50.782;6.074;2023-04-20T03:17:12;99661.84;;;5.88;66.84
24858;BME280;12935;50.782;6.074;2023-04-20T03:19:37;99660.72;;;5.89;65.12
24858;BME280;12935;50.782;6.074;2023-04-20T03:22:02;99666.19;;;6.12;65.54
24858;BME280;12935;50.782;6.074;2023-04-20T03:24:28;99660.41;;;6.14;65.45
24858;BME280;12935;50.782;6.074;2023-04-20T03:26:53;99666.75;;;6.02;65.85
24858;BME280;12935;50.782;6.074;2023-04-20T03:29:19;99662.09;;;6.22;65.14
24858;BME280;12935;50.782;6.074;2023-04-20T03:31:45;99658.13;;;6.39;64.77
24858;BME280;12935;50.782;6.074;2023-04-20T03:34:10;99661.81;;;6.27;65.17
24858;BME280;12935;50.782;6.074;2023-04-20T03:36:36;99650.63;;;6.09;64.28
24858;BME280;12935;50.782;6.074;2023-04-20T03:39:01;99657.47;;;6.03;64.99
24858;BME280;12935;50.782;6.074;2023-04-20T03:41:27;99661.47;;;6.09;65.51
24858;BME280;12935;50.782;6.074;2023-04-20T03:43:52;99662.41;;;6.40;64.60
24858;BME280;12935;50.782;6.074;2023-04-20T03:46:17;99661.81;;;6.50;63.76
24858;BME280;12935;50.782;6.074;2023-04-20T03:48:43;99652.81;;;6.46;63.42
24858;BME280;12935;50.782;6.074;2023-04-20T03:51:08;99654.28;;;6.40;64.05
24858;BME280;12935;50.782;6.074;2023-04-20T03:53:34;99646.16;;;6.20;64.10
24858;BME280;12935;50.782;6.074;2023-04-20T03:55:59;99654.44;;;6.27;64.57
24858;BME280;12935;50.782;6.074;2023-04-20T03:58:24;99647.38;;;6.23;64.35
24858;BME280;12935;50.782;6.074;2023-04-20T04:00:50;99645.44;;;6.46;64.05
24858;BME280;12935;50.782;6.074;2023-04-20T04:03:15;99639.84;;;6.58;63.17
24858;BME280;12935;50.782;6.074;2023-04-20T04:05:40;99631.34;;;6.60;63.40
24858;BME280;12935;50.782;6.074;2023-04-20T04:08:06;99640.53;;;6.78;62.57
24858;BME280;12935;50.782;6.074;2023-04-20T04:10:31;99643.25;;;6.78;61.90
24858;BME280;12935;50.782;6.074;2023-04-20T04:12:56;99639.75;;;6.78;61.84
24858;BME280;12935;50.782;6.074;2023-04-20T04:15:22;99633.50;;;6.51;62.81
24858;BME280;12935;50.782;6.074;2023-04-20T04:17:47;99639.97;;;6.43;63.08
24858;BME280;12935;50.782;6.074;2023-04-20T04:20:13;99640.81;;;6.24;64.32
24858;BME280;12935;50.782;6.074;2023-04-20T04:22:39;99638.75;;;6.17;64.64
24858;BME280;12935;50.782;6.074;2023-04-20T04:25:05;99637.84;;;6.10;64.86
24858;BME280;12935;50.782;6.074;2023-04-20T04:27:30;99630.78;;;6.05;65.79
24858;BME280;12935;50.782;6.074;2023-04-20T04:29:59;99637.78;;;6.06;67.04
24858;BME280;12935;50.782;6.074;2023-04-20T04:32:25;99638.06;;;6.01;68.35
24858;BME280;12935;50.782;6.074;2023-04-20T04:34:50;99641.53;;;5.98;70.42
24858;BME280;12935;50.782;6.074;2023-04-20T04:37:17;99640.22;;;5.92;72.27
24858;BME280;12935;50.782;6.074;2023-04-20T04:39:42;99645.78;;;5.80;75.45
24858;BME280;12935;50.782;6.074;2023-04-20T04:42:08;99626.25;;;5.90;75.02
24858;BME280;12935;50.782;6.074;2023-04-20T04:44:33;99636.06;;;5.79;77.28
24858;BME280;12935;50.782;6.074;2023-04-20T04:47:00;99635.41;;;5.85;77.83
24858;BME280;12935;50.782;6.074;2023-04-20T04:49:26;99643.34;;;6.13;76.68
24858;BME280;12935;50.782;6.074;2023-04-20T04:51:53;99640.88;;;6.27;75.50
24858;BME280;12935;50.782;6.074;2023-04-20T04:54:18;99644.25;;;6.21;75.85
24858;BME280;12935;50.782;6.074;2023-04-20T04:56:43;99638.47;;;6.22;76.79
24858;BME280;12935;50.782;6.074;2023-04-20T04:59:09;99638.78;;;6.40;76.34
24858;BME280;12935;50.782;6.074;2023-04-20T05:01:34;99635.09;;;6.29;77.77
24858;BME280;12935;50.782;6.074;2023-04-20T05:03:59;99627.50;;;6.38;77.49
24858;BME280;12935;50.782;6.074;2023-04-20T05:06:24;99628.44;;;6.49;78.45
24858;BME280;12935;50.782;6.074;2023-04-20T05:08:50;99631.88;;;6.69;79.68
24858;BME280;12935;50.782;6.074;2023-04-20T05:11:15;99629.78;;;6.59;79.92
24858;BME280;12935;50.782;6.074;2023-04-20T05:13:40;99632.97;;;6.64;80.58
24858;BME280;12935;50.782;6.074;2023-04-20T05:16:06;99631.16;;;6.72;81.67
24858;BME280;12935;50.782;6.074;2023-04-20T05:18:31;99640.09;;;6.73;82.65
24858;BME280;12935;50.782;6.074;2023-04-20T05:20:57;99638.94;;;6.74;82.37
24858;BME280;12935;50.782;6.074;2023-04-20T05:23:22;99634.72;;;6.76;83.34
24858;BME280;12935;50.782;6.074;2023-04-20T05:25:47;99623.47;;;6.78;83.27
24858;BME280;12935;50.782;6.074;2023-04-20T05:28:12;99616.09;;;6.78;83.05
24858;BME280;12935;50.782;6.074;2023-04-20T05:30:38;99613.94;;;6.64;83.80
24858;BME280;12935;50.782;6.074;2023-04-20T05:33:03;99625.97;;;6.63;84.62
24858;BME280;12935;50.782;6.074;2023-04-20T05:35:29;99628.25;;;6.61;85.85
24858;BME280;12935;50.782;6.074;2023-04-20T05:37:54;99625.78;;;6.53;88.39
24858;BME280;12935;50.782;6.074;2023-04-20T05:40:20;99620.56;;;6.41;89.51
24858;BME280;12935;50.782;6.074;2023-04-20T05:42:45;99627.25;;;6.24;92.77
24858;BME280;12935;50.782;6.074;2023-04-20T05:45:10;99620.19;;;5.96;97.03
24858;BME280;12935;50.782;6.074;2023-04-20T05:47:35;99630.94;;;5.93;98.65
24858;BME280;12935;50.782;6.074;2023-04-20T05:50:01;99623.59;;;5.93;97.75
24858;BME280;12935;50.782;6.074;2023-04-20T05:52:26;99613.91;;;6.15;96.84
24858;BME280;12935;50.782;6.074;2023-04-20T05:54:51;99616.28;;;6.40;96.69
24858;BME280;12935;50.782;6.074;2023-04-20T05:57:17;99610.34;;;6.57;96.93
24858;BME280;12935;50.782;6.074;2023-04-20T05:59:42;99617.97;;;6.25;100.00
24858;BME280;12935;50.782;6.074;2023-04-20T06:02:08;99619.38;;;5.96;100.00
24858;BME280;12935;50.782;6.074;2023-04-20T06:04:33;99616.31;;;5.59;100.00
24858;BME280;12935;50.782;6.074;2023-04-20T06:06:58;99617.66;;;5.69;100.00
24858;BME280;12935;50.782;6.074;2023-04-20T06:09:25;99622.72;;;5.70;100.00
24858;BME280;12935;50.782;6.074;2023-04-20T06:11:50;99625.00;;;5.68;100.00
24858;BME280;12935;50.782;6.074;2023-04-20T06:14:15;99622.88;;;5.77;100.00
24858;BME280;12935;50.782;6.074;2023-04-20T06:16:40;99619.16;;;6.05;100.00
24858;BME280;12935;50.782;6.074;2023-04-20T06:19:06;99620.00;;;6.31;100.00
24858;BME280;12935;50.782;6.074;2023-04-20T06:21:34;99622.72;;;6.09;100.00
24858;BME280;12935;50.782;6.074;2023-04-20T06:24:00;99618.66;;;5.99;100.00
24858;BME280;12935;50.782;6.074;2023-04-20T06:26:26;99622.53;;;6.21;100.00
24858;BME280;12935;50.782;6.074;2023-04-20T06:28:51;99625.84;;;6.33;100.00
24858;BME280;12935;50.782;6.074;2023-04-20T06:31:20;99615.72;;;6.08;100.00
24858;BME280;12935;50.782;6.074;2023-04-20T06:33:45;99618.31;;;6.23;100.00
24858;BME280;12935;50.782;6.074;2023-04-20T06:36:11;99621.88;;;6.05;100.00
24858;BME280;12935;50.782;6.074;2023-04-20T06:38:36;99612.66;;;6.09;100.00
24858;BME280;12935;50.782;6.074;2023-04-20T06:41:02;99610.41;;;6.15;100.00
24858;BME280;12935;50.782;6.074;2023-04-20T06:43:28;99607.88;;;6.03;100.00
24858;BME280;12935;50.782;6.074;2023-04-20T06:45:53;99599.69;;;5.60;100.00
24858;BME280;12935;50.782;6.074;2023-04-20T06:48:19;99603.41;;;5.72;100.00
24858;BME280;12935;50.782;6.074;2023-04-20T06:50:47;99594.25;;;5.80;100.00
24858;BME280;12935;50.782;6.074;2023-04-20T06:53:13;99597.13;;;5.68;100.00
24858;BME280;12935;50.782;6.074;2023-04-20T06:55:38;99601.00;;;5.67;100.00
24858;BME280;12935;50.782;6.074;2023-04-20T06:58:03;99594.41;;;5.68;100.00
24858;BME280;12935;50.782;6.074;2023-04-20T07:00:30;99596.94;;;5.99;100.00
24858;BME280;12935;50.782;6.074;2023-04-20T07:02:55;99589.13;;;6.17;100.00
24858;BME280;12935;50.782;6.074;2023-04-20T07:05:21;99575.28;;;6.22;100.00
24858;BME280;12935;50.782;6.074;2023-04-20T07:07:46;99576.84;;;6.23;100.00
24858;BME280;12935;50.782;6.074;2023-04-20T07:10:12;99581.06;;;5.97;100.00
24858;BME280;12935;50.782;6.074;2023-04-20T07:12:39;99569.84;;;6.22;100.00
24858;BME280;12935;50.782;6.074;2023-04-20T07:15:06;99579.25;;;6.28;100.00
24858;BME280;12935;50.782;6.074;2023-04-20T07:17:32;99574.84;;;6.20;100.00
24858;BME280;12935;50.782;6.074;2023-04-20T07:19:57;99566.59;;;6.13;100.00
24858;BME280;12935;50.782;6.074;2023-04-20T07:22:24;99567.91;;;5.99;100.00
24858;BME280;12935;50.782;6.074;2023-04-20T07:24:49;99561.06;;;5.86;100.00
24858;BME280;12935;50.782;6.074;2023-04-20T07:27:16;99563.50;;;6.14;100.00
24858;BME280;12935;50.782;6.074;2023-04-20T07:29:41;99559.41;;;6.01;100.00
24858;BME280;12935;50.782;6.074;2023-04-20T07:32:07;99554.41;;;6.03;100.00
24858;BME280;12935;50.782;6.074;2023-04-20T07:34:32;99559.66;;;6.15;100.00
24858;BME280;12935;50.782;6.074;2023-04-20T07:36:57;99561.84;;;6.29;100.00
24858;BME280;12935;50.782;6.074;2023-04-20T07:39:22;99560.53;;;6.46;100.00
24858;BME280;12935;50.782;6.074;2023-04-20T07:41:49;99559.41;;;6.24;100.00
24858;BME280;12935;50.782;6.074;2023-04-20T07:44:14;99568.00;;;6.26;100.00
24858;BME280;12935;50.782;6.074;2023-04-20T07:46:40;99558.94;;;6.67;100.00
24858;BME280;12935;50.782;6.074;2023-04-20T07:49:05;99559.78;;;6.72;100.00
24858;BME280;12935;50.782;6.074;2023-04-20T07:51:31;99565.56;;;6.70;100.00
24858;BME280;12935;50.782;6.074;2023-04-20T07:53:58;99560.06;;;6.66;100.00
24858;BME280;12935;50.782;6.074;2023-04-20T07:56:23;99561.16;;;6.36;100.00
24858;BME280;12935;50.782;6.074;2023-04-20T07:58:49;99558.50;;;6.16;100.00
24858;BME280;12935;50.782;6.074;2023-04-20T08:01:14;99557.91;;;6.26;100.00
24858;BME280;12935;50.782;6.074;2023-04-20T08:03:39;99557.41;;;6.44;100.00
24858;BME280;12935;50.782;6.074;2023-04-20T08:06:05;99557.28;;;6.59;100.00
24858;BME280;12935;50.782;6.074;2023-04-20T08:08:31;99550.91;;;6.25;100.00
24858;BME280;12935;50.782;6.074;2023-04-20T08:10:57;99548.44;;;5.94;100.00
24858;BME280;12935;50.782;6.074;2023-04-20T08:13:25;99552.25;;;6.12;100.00
24858;BME280;12935;50.782;6.074;2023-04-20T08:15:51;99552.09;;;6.51;100.00
24858;BME280;12935;50.782;6.074;2023-04-20T08:18:16;99547.06;;;6.79;100.00
24858;BME280;12935;50.782;6.074;2023-04-20T08:20:42;99546.88;;;6.91;100.00
24858;BME280;12935;50.782;6.074;2023-04-20T08:23:07;99553.25;;;7.06;100.00
24858;BME280;12935;50.782;6.074;2023-04-20T08:25:32;99550.56;;;7.10;100.00
24858;BME280;12935;50.782;6.074;2023-04-20T08:27:58;99554.53;;;7.16;100.00
24858;BME280;12935;50.782;6.074;2023-04-20T08:30:23;99555.00;;;7.21;100.00
24858;BME280;12935;50.782;6.074;2023-04-20T08:32:48;99553.09;;;7.25;100.00
24858;BME280;12935;50.782;6.074;2023-04-20T08:35:13;99548.44;;;7.26;100.00
24858;BME280;12935;50.782;6.074;2023-04-20T08:37:39;99548.50;;;7.29;100.00
24858;BME280;12935;50.782;6.074;2023-04-20T08:40:06;99547.72;;;6.99;100.00
24858;BME280;12935;50.782;6.074;2023-04-20T08:42:32;99552.19;;;6.84;100.00
24858;BME280;12935;50.782;6.074;2023-04-20T08:44:57;99550.38;;;6.92;100.00
24858;BME280;12935;50.782;6.074;2023-04-20T08:47:23;99551.69;;;7.05;100.00
24858;BME280;12935;50.782;6.074;2023-04-20T08:49:52;99555.22;;;7.09;100.00
24858;BME280;12935;50.782;6.074;2023-04-20T08:52:17;99541.28;;;7.11;100.00
24858;BME280;12935;50.782;6.074;2023-04-20T08:54:43;99549.41;;;7.07;100.00
24858;BME280;12935;50.782;6.074;2023-04-20T08:57:08;99550.97;;;7.08;100.00
24858;BME280;12935;50.782;6.074;2023-04-20T08:59:35;99547.72;;;6.99;100.00
24858;BME280;12935;50.782;6.074;2023-04-20T09:02:11;99542.06;;;7.11;100.00
24858;BME280;12935;50.782;6.074;2023-04-20T09:04:38;99541.00;;;7.19;100.00
24858;BME280;12935;50.782;6.074;2023-04-20T09:07:03;99539.84;;;7.20;100.00
24858;BME280;12935;50.782;6.074;2023-04-20T09:09:29;99533.75;;;7.30;100.00
24858;BME280;12935;50.782;6.074;2023-04-20T09:12:05;99528.06;;;7.43;100.00
24858;BME280;12935;50.782;6.074;2023-04-20T09:14:44;99526.28;;;7.57;100.00
24858;BME280;12935;50.782;6.074;2023-04-20T09:17:10;99530.25;;;7.63;100.00
24858;BME280;12935;50.782;6.074;2023-04-20T09:19:39;99524.94;;;7.40;100.00
24858;BME280;12935;50.782;6.074;2023-04-20T09:22:05;99523.66;;;6.97;100.00
24858;BME280;12935;50.782;6.074;2023-04-20T09:24:38;99521.75;;;7.01;100.00
24858;BME280;12935;50.782;6.074;2023-04-20T09:27:17;99525.13;;;7.21;100.00
24858;BME280;12935;50.782;6.074;2023-04-20T09:29:42;99530.69;;;7.32;100.00
24858;BME280;12935;50.782;6.074;2023-04-20T09:32:24;99536.56;;;7.37;100.00
24858;BME280;12935;50.782;6.074;2023-04-20T09:34:50;99524.56;;;7.42;100.00
24858;BME280;12935;50.782;6.074;2023-04-20T09:37:16;99527.69;;;7.44;100.00
24858;BME280;12935;50.782;6.074;2023-04-20T09:39:45;99536.41;;;7.60;100.00
24858;BME280;12935;50.782;6.074;2023-04-20T09:42:12;99529.56;;;7.73;100.00
24858;BME280;12935;50.782;6.074;2023-04-20T09:44:38;99527.84;;;7.55;100.00
24858;BME280;12935;50.782;6.074;2023-04-20T09:47:04;99531.19;;;7.45;100.00
24858;BME280;12935;50.782;6.074;2023-04-20T09:49:30;99510.56;;;7.40;100.00
24858;BME280;12935;50.782;6.074;2023-04-20T09:51:56;99520.38;;;7.15;100.00
24858;BME280;12935;50.782;6.074;2023-04-20T09:54:22;99515.25;;;7.43;100.00
24858;BME280;12935;50.782;6.074;2023-04-20T09:56:48;99509.97;;;7.54;100.00
24858;BME280;12935;50.782;6.074;2023-04-20T09:59:15;99517.97;;;7.80;100.00
24858;BME280;12935;50.782;6.074;2023-04-20T10:01:41;99506.81;;;7.92;100.00
24858;BME280;12935;50.782;6.074;2023-04-20T10:04:07;99513.91;;;8.00;100.00
24858;BME280;12935;50.782;6.074;2023-04-20T10:06:35;99510.84;;;8.09;100.00
24858;BME280;12935;50.782;6.074;2023-04-20T10:09:03;99508.44;;;8.44;100.00
24858;BME280;12935;50.782;6.074;2023-04-20T10:11:39;99500.44;;;8.73;100.00
24858;BME280;12935;50.782;6.074;2023-04-20T10:14:15;99513.00;;;8.95;100.00
24858;BME280;12935;50.782;6.074;2023-04-20T10:16:42;99496.66;;;8.99;100.00
24858;BME280;12935;50.782;6.074;2023-04-20T10:19:07;99505.38;;;8.53;100.00
24858;BME280;12935;50.782;6.074;2023-04-20T10:21:47;99500.28;;;8.48;100.00
24858;BME280;12935;50.782;6.074;2023-04-20T10:24:12;99498.34;;;8.52;100.00
24858;BME280;12935;50.782;6.074;2023-04-20T10:26:40;99494.47;;;8.50;100.00
24858;BME280;12935;50.782;6.074;2023-04-20T10:29:07;99501.00;;;8.41;100.00
24858;BME280;12935;50.782;6.074;2023-04-20T10:31:39;99505.50;;;8.23;100.00
24858;BME280;12935;50.782;6.074;2023-04-20T10:34:06;99506.59;;;8.12;100.00
24858;BME280;12935;50.782;6.074;2023-04-20T10:36:36;99507.31;;;8.05;100.00
24858;BME280;12935;50.782;6.074;2023-04-20T10:39:15;99502.09;;;7.86;100.00
24858;BME280;12935;50.782;6.074;2023-04-20T10:41:54;99504.34;;;7.77;100.00
24858;BME280;12935;50.782;6.074;2023-04-20T10:44:22;99497.75;;;7.78;100.00
24858;BME280;12935;50.782;6.074;2023-04-20T10:46:49;99516.78;;;7.78;100.00
24858;BME280;12935;50.782;6.074;2023-04-20T10:49:14;99512.44;;;7.69;100.00
24858;BME280;12935;50.782;6.074;2023-04-20T10:51:51;99502.56;;;6.87;100.00
24858;BME280;12935;50.782;6.074;2023-04-20T10:54:17;99490.19;;;6.60;100.00
24858;BME280;12935;50.782;6.074;2023-04-20T10:56:48;99488.88;;;6.77;100.00
24858;BME280;12935;50.782;6.074;2023-04-20T10:59:18;99485.97;;;6.92;100.00
24858;BME280;12935;50.782;6.074;2023-04-20T11:01:45;99493.56;;;7.47;100.00
24858;BME280;12935;50.782;6.074;2023-04-20T11:04:11;99480.34;;;7.89;100.00
24858;BME280;12935;50.782;6.074;2023-04-20T11:06:39;99479.03;;;8.17;100.00
24858;BME280;12935;50.782;6.074;2023-04-20T11:09:24;99473.44;;;8.47;100.00
24858;BME280;12935;50.782;6.074;2023-04-20T11:12:03;99474.03;;;8.88;100.00
24858;BME280;12935;50.782;6.074;2023-04-20T11:14:30;99476.47;;;9.10;100.00
24858;BME280;12935;50.782;6.074;2023-04-20T11:16:56;99465.31;;;9.65;100.00
24858;BME280;12935;50.782;6.074;2023-04-20T11:19:26;99467.63;;;10.63;100.00
24858;BME280;12935;50.782;6.074;2023-04-20T11:21:51;99461.75;;;11.51;100.00
24858;BME280;12935;50.782;6.074;2023-04-20T11:24:21;99457.88;;;11.45;100.00
24858;BME280;12935;50.782;6.074;2023-04-20T11:26:47;99453.72;;;11.23;100.00
24858;BME280;12935;50.782;6.074;2023-04-20T11:29:35;99454.06;;;11.32;100.00
24858;BME280;12935;50.782;6.074;2023-04-20T11:32:04;99451.66;;;11.41;100.00
24858;BME280;12935;50.782;6.074;2023-04-20T11:34:31;99447.41;;;11.96;100.00
24858;BME280;12935;50.782;6.074;2023-04-20T11:37:02;99452.44;;;12.42;100.00
24858;BME280;12935;50.782;6.074;2023-04-20T11:39:28;99435.69;;;13.04;97.34
24858;BME280;12935;50.782;6.074;2023-04-20T11:41:55;99430.22;;;14.08;91.43
24858;BME280;12935;50.782;6.074;2023-04-20T11:44:23;99431.00;;;14.09;92.30
24858;BME280;12935;50.782;6.074;2023-04-20T11:46:50;99427.94;;;14.69;87.81
24858;BME280;12935;50.782;6.074;2023-04-20T11:49:18;99428.25;;;14.32;81.89
24858;BME280;12935;50.782;6.074;2023-04-20T11:51:44;99423.72;;;13.48;82.09
24858;BME280;12935;50.782;6.074;2023-04-20T11:54:13;99426.59;;;12.43;81.43
24858;BME280;12935;50.782;6.074;2023-04-20T11:56:40;99433.91;;;12.15;88.24
24858;BME280;12935;50.782;6.074;2023-04-20T11:59:08;99429.47;;;12.66;89.92
24858;BME280;12935;50.782;6.074;2023-04-20T12:01:34;99424.44;;;12.91;91.32
24858;BME280;12935;50.782;6.074;2023-04-20T12:04:00;99422.84;;;12.94;90.88
24858;BME280;12935;50.782;6.074;2023-04-20T12:06:26;99420.69;;;12.44;88.82
24858;BME280;12935;50.782;6.074;2023-04-20T12:08:53;99425.75;;;12.12;92.30
24858;BME280;12935;50.782;6.074;2023-04-20T12:11:19;99428.78;;;11.69;92.17
24858;BME280;12935;50.782;6.074;2023-04-20T12:13:44;99426.22;;;11.48;95.47
24858;BME280;12935;50.782;6.074;2023-04-20T12:16:09;99418.06;;;11.37;98.92
24858;BME280;12935;50.782;6.074;2023-04-20T12:18:35;99425.22;;;11.17;98.55
24858;BME280;12935;50.782;6.074;2023-04-20T12:21:00;99418.38;;;10.84;100.00
24858;BME280;12935;50.782;6.074;2023-04-20T12:23:26;99423.97;;;10.31;100.00
24858;BME280;12935;50.782;6.074;2023-04-20T12:25:51;99425.16;;;10.15;100.00
24858;BME280;12935;50.782;6.074;2023-04-20T12:28:16;99427.91;;;9.83;100.00
24858;BME280;12935;50.782;6.074;2023-04-20T12:30:42;99429.84;;;9.55;100.00
24858;BME280;12935;50.782;6.074;2023-04-20T12:33:07;99426.69;;;9.38;100.00
24858;BME280;12935;50.782;6.074;2023-04-20T12:35:32;99422.81;;;9.57;100.00
24858;BME280;12935;50.782;6.074;2023-04-20T12:37:58;99428.69;;;9.84;100.00
24858;BME280;12935;50.782;6.074;2023-04-20T12:40:23;99429.34;;;10.63;100.00
24858;BME280;12935;50.782;6.074;2023-04-20T12:42:48;99421.03;;;11.64;100.00
24858;BME280;12935;50.782;6.074;2023-04-20T12:45:14;99420.84;;;12.30;100.00
24858;BME280;12935;50.782;6.074;2023-04-20T12:47:39;99415.00;;;12.62;100.00
24858;BME280;12935;50.782;6.074;2023-04-20T12:50:05;99411.13;;;12.59;95.44
24858;BME280;12935;50.782;6.074;2023-04-20T12:52:31;99410.38;;;12.21;97.92
24858;BME280;12935;50.782;6.074;2023-04-20T12:54:57;99407.13;;;12.68;97.91
24858;BME280;12935;50.782;6.074;2023-04-20T12:57:22;99403.66;;;12.63;97.75
24858;BME280;12935;50.782;6.074;2023-04-20T12:59:48;99412.13;;;12.42;95.95